sensor_id;sensor_type;location;lat;lon;timestamp;P1;durP1;ratioP1;P2;durP2;ratioP2
70814;SDS011;58428;49.478;10.986;2022-07-29T00:01:59;4.63;;;2.50;;
70814;SDS011;58428;49.478;10.986;2022-07-29T00:04:25;4.47;;;2.35;;
70814;SDS011;58428;49.478;10.986;2022-07-29T00:06:50;4.15;;;2.58;;
70814;SDS011;58428;49.478;10.986;2022-07-29T00:09:16;5.93;;;2.55;;
70814;SDS011;58428;49.478;10.986;2022-07-29T00:11:41;5.55;;;2.30;;
70814;SDS011;58428;49.478;10.986;2022-07-29T00:14:07;5.47;;;2.78;;
70814;SDS011;58428;49.478;10.986;2022-07-29T00:16:32;5.25;;;2.55;;
70814;SDS011;58428;49.478;10.986;2022-07-29T00:18:58;5.00;;;2.53;;
70814;SDS011;58428;49.478;10.986;2022-07-29T00:21:23;6.35;;;2.65;;
70814;SDS011;58428;49.478;10.986;2022-07-29T00:23:49;4.68;;;2.50;;
70814;SDS011;58428;49.478;10.986;2022-07-29T00:26:14;5.18;;;2.65;;
70814;SDS011;58428;49.478;10.986;2022-07-29T00:28:39;4.82;;;2.50;;
70814;SDS011;58428;49.478;10.986;2022-07-29T00:31:05;4.93;;;2.30;;
70814;SDS011;58428;49.478;10.986;2022-07-29T00:33:30;3.60;;;2.10;;
70814;SDS011;58428;49.478;10.986;2022-07-29T00:35:55;5.15;;;2.30;;
70814;SDS011;58428;49.478;10.986;2022-07-29T00:38:21;4.47;;;2.40;;
70814;SDS011;58428;49.478;10.986;2022-07-29T00:40:47;5.60;;;2.60;;
70814;SDS011;58428;49.478;10.986;2022-07-29T00:43:14;5.88;;;2.60;;
70814;SDS011;58428;49.478;10.986;2022-07-29T00:45:40;6.68;;;2.58;;
70814;SDS011;58428;49.478;10.986;2022-07-29T00:48:06;4.65;;;2.53;;
70814;SDS011;58428;49.478;10.986;2022-07-29T00:50:33;4.90;;;2.30;;
70814;SDS011;58428;49.478;10.986;2022-07-29T00:52:59;5.22;;;2.30;;
70814;SDS011;58428;49.478;10.986;2022-07-29T00:55:26;4.30;;;2.30;;
70814;SDS011;58428;49.478;10.986;2022-07-29T00:57:52;4.72;;;2.42;;
70814;SDS011;58428;49.478;10.986;2022-07-29T01:00:23;4.93;;;2.33;;
70814;SDS011;58428;49.478;10.986;2022-07-29T01:02:49;5.10;;;2.65;;
70814;SDS011;58428;49.478;10.986;2022-07-29T01:05:16;4.47;;;2.40;;
70814;SDS011;58428;49.478;10.986;2022-07-29T01:07:44;4.53;;;2.50;;
70814;SDS011;58428;49.478;10.986;2022-07-29T01:10:11;4.32;;;2.40;;
70814;SDS011;58428;49.478;10.986;2022-07-29T01:12:38;4.18;;;2.30;;
70814;SDS011;58428;49.478;10.986;2022-07-29T01:15:05;7.38;;;2.40;;
70814;SDS011;58428;49.478;10.986;2022-07-29T01:32:05;3.97;;;2.35;;
70814;SDS011;58428;49.478;10.986;2022-07-29T01:40:14;3.60;;;2.35;;
70814;SDS011;58428;49.478;10.986;2022-07-29T01:43:21;7.53;;;2.70;;
70814;SDS011;58428;49.478;10.986;2022-07-29T01:46:09;6.00;;;2.53;;
70814;SDS011;58428;49.478;10.986;2022-07-29T01:48:40;11.45;;;2.58;;
70814;SDS011;58428;49.478;10.986;2022-07-29T01:53:36;4.73;;;2.87;;
70814;SDS011;58428;49.478;10.986;2022-07-29T01:56:07;3.75;;;2.30;;
70814;SDS011;58428;49.478;10.986;2022-07-29T01:58:35;4.25;;;2.53;;
70814;SDS011;58428;49.478;10.986;2022-07-29T02:01:05;4.65;;;2.38;;
70814;SDS011;58428;49.478;10.986;2022-07-29T02:03:34;3.05;;;2.10;;
70814;SDS011;58428;49.478;10.986;2022-07-29T02:06:01;4.32;;;2.50;;
70814;SDS011;58428;49.478;10.986;2022-07-29T02:08:28;5.05;;;2.60;;
70814;SDS011;58428;49.478;10.986;2022-07-29T02:10:56;4.57;;;2.58;;
70814;SDS011;58428;49.478;10.986;2022-07-29T02:22:00;5.18;;;2.78;;
70814;SDS011;58428;49.478;10.986;2022-07-29T02:24:33;4.45;;;2.20;;
70814;SDS011;58428;49.478;10.986;2022-07-29T02:27:02;3.97;;;2.30;;
70814;SDS011;58428;49.478;10.986;2022-07-29T02:29:28;5.80;;;2.67;;
70814;SDS011;58428;49.478;10.986;2022-07-29T02:31:57;3.63;;;2.20;;
70814;SDS011;58428;49.478;10.986;2022-07-29T02:34:23;4.40;;;2.70;;
70814;SDS011;58428;49.478;10.986;2022-07-29T02:36:50;6.10;;;2.40;;
70814;SDS011;58428;49.478;10.986;2022-07-29T02:39:19;4.45;;;2.20;;
70814;SDS011;58428;49.478;10.986;2022-07-29T02:41:48;5.07;;;2.40;;
70814;SDS011;58428;49.478;10.986;2022-07-29T02:44:20;9.05;;;3.00;;
70814;SDS011;58428;49.478;10.986;2022-07-29T02:46:53;14.23;;;4.45;;
70814;SDS011;58428;49.478;10.986;2022-07-29T02:52:12;6.63;;;2.80;;
70814;SDS011;58428;49.478;10.986;2022-07-29T02:55:02;6.07;;;2.90;;
70814;SDS011;58428;49.478;10.986;2022-07-29T02:58:01;5.72;;;2.80;;
70814;SDS011;58428;49.478;10.986;2022-07-29T03:00:31;6.72;;;2.50;;
70814;SDS011;58428;49.478;10.986;2022-07-29T03:03:03;4.90;;;2.58;;
70814;SDS011;58428;49.478;10.986;2022-07-29T03:05:32;5.80;;;2.70;;
70814;SDS011;58428;49.478;10.986;2022-07-29T03:08:00;5.13;;;2.60;;
70814;SDS011;58428;49.478;10.986;2022-07-29T03:10:30;4.97;;;2.65;;
70814;SDS011;58428;49.478;10.986;2022-07-29T03:12:56;5.32;;;2.50;;
70814;SDS011;58428;49.478;10.986;2022-07-29T03:15:23;9.48;;;3.58;;
70814;SDS011;58428;49.478;10.986;2022-07-29T03:17:49;10.68;;;2.83;;
70814;SDS011;58428;49.478;10.986;2022-07-29T03:20:15;4.63;;;2.45;;
70814;SDS011;58428;49.478;10.986;2022-07-29T03:22:41;5.80;;;2.35;;
70814;SDS011;58428;49.478;10.986;2022-07-29T03:25:11;6.03;;;2.53;;
70814;SDS011;58428;49.478;10.986;2022-07-29T03:27:40;4.88;;;2.30;;
70814;SDS011;58428;49.478;10.986;2022-07-29T03:30:09;6.55;;;2.53;;
70814;SDS011;58428;49.478;10.986;2022-07-29T03:32:38;8.18;;;2.63;;
70814;SDS011;58428;49.478;10.986;2022-07-29T03:35:04;7.55;;;2.70;;
70814;SDS011;58428;49.478;10.986;2022-07-29T03:37:32;10.20;;;3.20;;
70814;SDS011;58428;49.478;10.986;2022-07-29T03:39:58;6.32;;;2.92;;
70814;SDS011;58428;49.478;10.986;2022-07-29T03:42:32;7.00;;;2.85;;
70814;SDS011;58428;49.478;10.986;2022-07-29T03:45:03;9.43;;;2.80;;
70814;SDS011;58428;49.478;10.986;2022-07-29T03:47:32;9.30;;;3.58;;
70814;SDS011;58428;49.478;10.986;2022-07-29T03:50:05;7.05;;;2.67;;
70814;SDS011;58428;49.478;10.986;2022-07-29T03:52:32;9.40;;;3.70;;
70814;SDS011;58428;49.478;10.986;2022-07-29T03:54:58;6.20;;;2.80;;
70814;SDS011;58428;49.478;10.986;2022-07-29T03:57:27;4.80;;;2.28;;
70814;SDS011;58428;49.478;10.986;2022-07-29T03:59:55;4.65;;;2.80;;
70814;SDS011;58428;49.478;10.986;2022-07-29T04:02:23;7.18;;;2.70;;
70814;SDS011;58428;49.478;10.986;2022-07-29T04:04:50;7.93;;;3.00;;
70814;SDS011;58428;49.478;10.986;2022-07-29T04:07:17;5.97;;;2.55;;
70814;SDS011;58428;49.478;10.986;2022-07-29T04:09:42;4.57;;;2.35;;
70814;SDS011;58428;49.478;10.986;2022-07-29T04:12:08;5.43;;;2.40;;
70814;SDS011;58428;49.478;10.986;2022-07-29T04:14:34;7.20;;;2.92;;
70814;SDS011;58428;49.478;10.986;2022-07-29T04:17:06;5.07;;;2.60;;
70814;SDS011;58428;49.478;10.986;2022-07-29T04:19:32;5.85;;;2.70;;
70814;SDS011;58428;49.478;10.986;2022-07-29T04:21:59;5.93;;;2.50;;
70814;SDS011;58428;49.478;10.986;2022-07-29T04:24:24;6.32;;;2.50;;
70814;SDS011;58428;49.478;10.986;2022-07-29T04:26:50;5.20;;;2.45;;
70814;SDS011;58428;49.478;10.986;2022-07-29T04:29:16;5.95;;;2.40;;
70814;SDS011;58428;49.478;10.986;2022-07-29T04:31:42;5.60;;;2.90;;
70814;SDS011;58428;49.478;10.986;2022-07-29T04:34:11;5.03;;;2.50;;
70814;SDS011;58428;49.478;10.986;2022-07-29T04:36:39;6.05;;;2.70;;
70814;SDS011;58428;49.478;10.986;2022-07-29T04:39:05;5.90;;;2.83;;
70814;SDS011;58428;49.478;10.986;2022-07-29T04:41:33;5.78;;;2.80;;
70814;SDS011;58428;49.478;10.986;2022-07-29T04:43:58;5.13;;;2.47;;
70814;SDS011;58428;49.478;10.986;2022-07-29T04:46:25;5.45;;;2.80;;
70814;SDS011;58428;49.478;10.986;2022-07-29T04:48:51;5.50;;;2.70;;
70814;SDS011;58428;49.478;10.986;2022-07-29T04:51:16;5.13;;;2.72;;
70814;SDS011;58428;49.478;10.986;2022-07-29T04:53:42;7.53;;;2.83;;
70814;SDS011;58428;49.478;10.986;2022-07-29T04:56:07;5.47;;;2.55;;
70814;SDS011;58428;49.478;10.986;2022-07-29T04:58:36;6.40;;;2.80;;
70814;SDS011;58428;49.478;10.986;2022-07-29T05:01:02;7.32;;;2.60;;
70814;SDS011;58428;49.478;10.986;2022-07-29T05:03:30;4.40;;;2.45;;
70814;SDS011;58428;49.478;10.986;2022-07-29T05:05:55;4.70;;;2.63;;
70814;SDS011;58428;49.478;10.986;2022-07-29T05:08:21;4.53;;;2.40;;
70814;SDS011;58428;49.478;10.986;2022-07-29T05:10:46;5.88;;;2.65;;
70814;SDS011;58428;49.478;10.986;2022-07-29T05:13:12;4.78;;;2.42;;
70814;SDS011;58428;49.478;10.986;2022-07-29T05:20:51;6.38;;;2.47;;
70814;SDS011;58428;49.478;10.986;2022-07-29T05:23:17;7.15;;;2.08;;
70814;SDS011;58428;49.478;10.986;2022-07-29T05:26:17;6.18;;;2.50;;
70814;SDS011;58428;49.478;10.986;2022-07-29T05:28:49;5.40;;;2.72;;
70814;SDS011;58428;49.478;10.986;2022-07-29T05:31:38;5.65;;;2.35;;
70814;SDS011;58428;49.478;10.986;2022-07-29T05:34:04;6.05;;;2.60;;
70814;SDS011;58428;49.478;10.986;2022-07-29T05:36:40;5.50;;;2.60;;
70814;SDS011;58428;49.478;10.986;2022-07-29T05:51:56;8.02;;;2.60;;
70814;SDS011;58428;49.478;10.986;2022-07-29T05:54:21;4.28;;;2.45;;
70814;SDS011;58428;49.478;10.986;2022-07-29T05:56:46;7.00;;;2.80;;
70814;SDS011;58428;49.478;10.986;2022-07-29T05:59:12;6.03;;;3.00;;
70814;SDS011;58428;49.478;10.986;2022-07-29T06:01:37;5.27;;;2.57;;
70814;SDS011;58428;49.478;10.986;2022-07-29T06:04:04;4.88;;;2.42;;
70814;SDS011;58428;49.478;10.986;2022-07-29T06:06:31;5.15;;;2.78;;
70814;SDS011;58428;49.478;10.986;2022-07-29T06:08:57;7.00;;;3.08;;
70814;SDS011;58428;49.478;10.986;2022-07-29T06:11:22;5.72;;;2.75;;
70814;SDS011;58428;49.478;10.986;2022-07-29T06:13:47;7.25;;;3.00;;
70814;SDS011;58428;49.478;10.986;2022-07-29T06:16:13;7.05;;;3.10;;
70814;SDS011;58428;49.478;10.986;2022-07-29T06:18:38;6.37;;;3.07;;
70814;SDS011;58428;49.478;10.986;2022-07-29T06:21:07;5.28;;;3.10;;
70814;SDS011;58428;49.478;10.986;2022-07-29T06:23:34;8.10;;;3.30;;
70814;SDS011;58428;49.478;10.986;2022-07-29T06:26:01;5.25;;;2.83;;
70814;SDS011;58428;49.478;10.986;2022-07-29T06:28:27;6.18;;;2.95;;
70814;SDS011;58428;49.478;10.986;2022-07-29T06:30:53;4.88;;;2.58;;
70814;SDS011;58428;49.478;10.986;2022-07-29T06:33:18;5.03;;;3.10;;
70814;SDS011;58428;49.478;10.986;2022-07-29T06:35:44;5.57;;;3.00;;
70814;SDS011;58428;49.478;10.986;2022-07-29T06:38:12;7.80;;;3.63;;
70814;SDS011;58428;49.478;10.986;2022-07-29T06:40:40;6.75;;;3.45;;
70814;SDS011;58428;49.478;10.986;2022-07-29T06:43:38;5.18;;;3.13;;
70814;SDS011;58428;49.478;10.986;2022-07-29T06:46:07;7.55;;;2.97;;
70814;SDS011;58428;49.478;10.986;2022-07-29T06:48:37;5.93;;;2.80;;
70814;SDS011;58428;49.478;10.986;2022-07-29T06:51:04;6.72;;;3.20;;
70814;SDS011;58428;49.478;10.986;2022-07-29T06:53:31;5.45;;;3.30;;
70814;SDS011;58428;49.478;10.986;2022-07-29T06:55:58;4.57;;;2.88;;
70814;SDS011;58428;49.478;10.986;2022-07-29T06:58:25;6.53;;;3.20;;
70814;SDS011;58428;49.478;10.986;2022-07-29T07:00:51;4.80;;;3.30;;
70814;SDS011;58428;49.478;10.986;2022-07-29T07:03:17;7.97;;;2.90;;
70814;SDS011;58428;49.478;10.986;2022-07-29T07:05:43;5.47;;;2.80;;
70814;SDS011;58428;49.478;10.986;2022-07-29T07:08:09;6.90;;;3.53;;
70814;SDS011;58428;49.478;10.986;2022-07-29T07:10:35;6.00;;;3.08;;
70814;SDS011;58428;49.478;10.986;2022-07-29T07:13:00;7.40;;;3.05;;
70814;SDS011;58428;49.478;10.986;2022-07-29T07:15:27;5.10;;;3.40;;
70814;SDS011;58428;49.478;10.986;2022-07-29T07:17:52;5.15;;;2.70;;
70814;SDS011;58428;49.478;10.986;2022-07-29T07:20:18;5.45;;;3.00;;
70814;SDS011;58428;49.478;10.986;2022-07-29T07:22:46;7.13;;;2.97;;
70814;SDS011;58428;49.478;10.986;2022-07-29T07:25:15;7.22;;;3.30;;
70814;SDS011;58428;49.478;10.986;2022-07-29T07:27:42;4.68;;;3.15;;
70814;SDS011;58428;49.478;10.986;2022-07-29T07:30:08;5.60;;;3.38;;
70814;SDS011;58428;49.478;10.986;2022-07-29T07:32:34;6.32;;;3.42;;
70814;SDS011;58428;49.478;10.986;2022-07-29T07:34:59;6.80;;;3.50;;
70814;SDS011;58428;49.478;10.986;2022-07-29T07:37:25;5.78;;;3.00;;
70814;SDS011;58428;49.478;10.986;2022-07-29T07:39:51;7.57;;;3.78;;
70814;SDS011;58428;49.478;10.986;2022-07-29T07:44:57;7.45;;;4.18;;
70814;SDS011;58428;49.478;10.986;2022-07-29T07:47:22;4.72;;;3.25;;
70814;SDS011;58428;49.478;10.986;2022-07-29T07:49:49;4.75;;;2.90;;
70814;SDS011;58428;49.478;10.986;2022-07-29T07:52:15;7.80;;;3.20;;
70814;SDS011;58428;49.478;10.986;2022-07-29T07:54:42;5.45;;;2.70;;
70814;SDS011;58428;49.478;10.986;2022-07-29T07:57:08;5.57;;;3.13;;
70814;SDS011;58428;49.478;10.986;2022-07-29T07:59:37;5.80;;;3.65;;
70814;SDS011;58428;49.478;10.986;2022-07-29T08:02:04;7.15;;;3.72;;
70814;SDS011;58428;49.478;10.986;2022-07-29T08:04:29;7.75;;;4.25;;
70814;SDS011;58428;49.478;10.986;2022-07-29T08:06:55;10.07;;;4.60;;
70814;SDS011;58428;49.478;10.986;2022-07-29T08:09:22;7.50;;;4.53;;
70814;SDS011;58428;49.478;10.986;2022-07-29T08:11:49;9.20;;;4.00;;
70814;SDS011;58428;49.478;10.986;2022-07-29T08:14:15;8.07;;;4.10;;
70814;SDS011;58428;49.478;10.986;2022-07-29T08:16:41;6.60;;;4.28;;
70814;SDS011;58428;49.478;10.986;2022-07-29T08:19:07;6.85;;;3.40;;
70814;SDS011;58428;49.478;10.986;2022-07-29T08:21:32;5.90;;;2.90;;
70814;SDS011;58428;49.478;10.986;2022-07-29T08:23:57;6.80;;;3.83;;
70814;SDS011;58428;49.478;10.986;2022-07-29T08:26:42;6.13;;;3.67;;
70814;SDS011;58428;49.478;10.986;2022-07-29T08:29:10;9.10;;;3.97;;
70814;SDS011;58428;49.478;10.986;2022-07-29T08:31:36;7.35;;;3.65;;
70814;SDS011;58428;49.478;10.986;2022-07-29T08:34:03;9.07;;;3.30;;
70814;SDS011;58428;49.478;10.986;2022-07-29T08:36:29;5.40;;;3.70;;
70814;SDS011;58428;49.478;10.986;2022-07-29T08:38:55;22.85;;;7.53;;
70814;SDS011;58428;49.478;10.986;2022-07-29T08:41:21;6.80;;;4.13;;
70814;SDS011;58428;49.478;10.986;2022-07-29T08:43:50;25.25;;;5.85;;
70814;SDS011;58428;49.478;10.986;2022-07-29T08:46:16;8.30;;;3.60;;
70814;SDS011;58428;49.478;10.986;2022-07-29T08:48:42;7.43;;;3.80;;
70814;SDS011;58428;49.478;10.986;2022-07-29T08:51:08;6.60;;;3.45;;
70814;SDS011;58428;49.478;10.986;2022-07-29T08:53:40;7.75;;;3.55;;
70814;SDS011;58428;49.478;10.986;2022-07-29T08:56:11;7.90;;;4.07;;
70814;SDS011;58428;49.478;10.986;2022-07-29T08:58:38;7.05;;;3.72;;
70814;SDS011;58428;49.478;10.986;2022-07-29T09:01:04;6.25;;;3.42;;
70814;SDS011;58428;49.478;10.986;2022-07-29T09:03:31;6.65;;;4.20;;
70814;SDS011;58428;49.478;10.986;2022-07-29T09:05:59;6.70;;;3.90;;
70814;SDS011;58428;49.478;10.986;2022-07-29T09:08:25;8.88;;;5.60;;
70814;SDS011;58428;49.478;10.986;2022-07-29T09:10:51;8.25;;;4.65;;
70814;SDS011;58428;49.478;10.986;2022-07-29T09:13:16;8.38;;;4.53;;
70814;SDS011;58428;49.478;10.986;2022-07-29T09:15:43;5.95;;;4.32;;
70814;SDS011;58428;49.478;10.986;2022-07-29T09:18:09;10.15;;;3.50;;
70814;SDS011;58428;49.478;10.986;2022-07-29T09:20:35;4.47;;;3.10;;
70814;SDS011;58428;49.478;10.986;2022-07-29T09:23:22;5.50;;;3.25;;
70814;SDS011;58428;49.478;10.986;2022-07-29T09:25:47;6.28;;;3.35;;
70814;SDS011;58428;49.478;10.986;2022-07-29T09:28:13;6.88;;;3.40;;
70814;SDS011;58428;49.478;10.986;2022-07-29T09:30:53;7.45;;;3.90;;
70814;SDS011;58428;49.478;10.986;2022-07-29T09:33:23;10.77;;;4.72;;
70814;SDS011;58428;49.478;10.986;2022-07-29T09:36:00;5.95;;;3.40;;
70814;SDS011;58428;49.478;10.986;2022-07-29T09:38:29;5.72;;;3.60;;
70814;SDS011;58428;49.478;10.986;2022-07-29T09:40:57;8.10;;;3.92;;
70814;SDS011;58428;49.478;10.986;2022-07-29T09:43:25;5.07;;;3.05;;
70814;SDS011;58428;49.478;10.986;2022-07-29T09:45:51;11.43;;;6.15;;
70814;SDS011;58428;49.478;10.986;2022-07-29T09:48:17;6.95;;;4.13;;
70814;SDS011;58428;49.478;10.986;2022-07-29T09:50:45;8.07;;;3.60;;
70814;SDS011;58428;49.478;10.986;2022-07-29T09:53:29;5.38;;;3.15;;
70814;SDS011;58428;49.478;10.986;2022-07-29T09:55:58;5.53;;;3.55;;
70814;SDS011;58428;49.478;10.986;2022-07-29T09:58:24;4.13;;;2.85;;
70814;SDS011;58428;49.478;10.986;2022-07-29T10:00:50;6.28;;;3.10;;
70814;SDS011;58428;49.478;10.986;2022-07-29T10:03:17;5.68;;;2.90;;
70814;SDS011;58428;49.478;10.986;2022-07-29T10:05:44;6.00;;;2.95;;
70814;SDS011;58428;49.478;10.986;2022-07-29T10:08:11;6.07;;;3.10;;
70814;SDS011;58428;49.478;10.986;2022-07-29T10:10:41;5.60;;;3.30;;
70814;SDS011;58428;49.478;10.986;2022-07-29T10:13:08;5.10;;;2.90;;
70814;SDS011;58428;49.478;10.986;2022-07-29T10:15:37;4.75;;;3.00;;
70814;SDS011;58428;49.478;10.986;2022-07-29T10:18:10;4.82;;;2.90;;
70814;SDS011;58428;49.478;10.986;2022-07-29T10:20:38;5.97;;;3.15;;
70814;SDS011;58428;49.478;10.986;2022-07-29T10:23:11;5.40;;;3.42;;
70814;SDS011;58428;49.478;10.986;2022-07-29T10:25:37;5.80;;;3.35;;
70814;SDS011;58428;49.478;10.986;2022-07-29T10:28:03;4.38;;;3.17;;
70814;SDS011;58428;49.478;10.986;2022-07-29T10:30:33;6.63;;;3.05;;
70814;SDS011;58428;49.478;10.986;2022-07-29T10:38:32;6.10;;;3.33;;
70814;SDS011;58428;49.478;10.986;2022-07-29T10:43:46;5.20;;;2.97;;
70814;SDS011;58428;49.478;10.986;2022-07-29T10:46:13;5.63;;;3.22;;
70814;SDS011;58428;49.478;10.986;2022-07-29T10:54:15;4.00;;;2.83;;
70814;SDS011;58428;49.478;10.986;2022-07-29T10:56:41;4.78;;;2.92;;
70814;SDS011;58428;49.478;10.986;2022-07-29T10:59:40;6.22;;;3.20;;
70814;SDS011;58428;49.478;10.986;2022-07-29T11:01:58;4.28;;;3.13;;
70814;SDS011;58428;49.478;10.986;2022-07-29T11:07:09;5.97;;;3.30;;
70814;SDS011;58428;49.478;10.986;2022-07-29T11:09:36;4.80;;;3.20;;
70814;SDS011;58428;49.478;10.986;2022-07-29T11:12:03;5.75;;;3.00;;
70814;SDS011;58428;49.478;10.986;2022-07-29T11:17:19;5.53;;;3.25;;
70814;SDS011;58428;49.478;10.986;2022-07-29T11:19:45;4.78;;;3.50;;
70814;SDS011;58428;49.478;10.986;2022-07-29T11:22:10;5.53;;;3.78;;
70814;SDS011;58428;49.478;10.986;2022-07-29T11:24:37;5.10;;;3.60;;
70814;SDS011;58428;49.478;10.986;2022-07-29T11:29:48;6.00;;;3.28;;
70814;SDS011;58428;49.478;10.986;2022-07-29T11:32:18;6.40;;;3.78;;
70814;SDS011;58428;49.478;10.986;2022-07-29T11:34:46;5.03;;;3.58;;
70814;SDS011;58428;49.478;10.986;2022-07-29T11:47:21;5.85;;;3.10;;
70814;SDS011;58428;49.478;10.986;2022-07-29T11:49:46;5.85;;;3.10;;
70814;SDS011;58428;49.478;10.986;2022-07-29T11:52:13;5.70;;;3.20;;
70814;SDS011;58428;49.478;10.986;2022-07-29T11:54:38;4.35;;;3.00;;
70814;SDS011;58428;49.478;10.986;2022-07-29T11:57:07;5.68;;;2.90;;
70814;SDS011;58428;49.478;10.986;2022-07-29T11:59:38;4.68;;;3.20;;
70814;SDS011;58428;49.478;10.986;2022-07-29T12:02:08;5.38;;;3.38;;
70814;SDS011;58428;49.478;10.986;2022-07-29T12:04:34;4.22;;;3.05;;
70814;SDS011;58428;49.478;10.986;2022-07-29T12:07:26;5.28;;;2.90;;
70814;SDS011;58428;49.478;10.986;2022-07-29T12:09:55;6.10;;;3.65;;
70814;SDS011;58428;49.478;10.986;2022-07-29T12:12:22;4.75;;;3.40;;
70814;SDS011;58428;49.478;10.986;2022-07-29T12:14:49;7.28;;;3.60;;
70814;SDS011;58428;49.478;10.986;2022-07-29T12:19:54;6.13;;;3.30;;
70814;SDS011;58428;49.478;10.986;2022-07-29T12:22:24;5.47;;;3.58;;
70814;SDS011;58428;49.478;10.986;2022-07-29T12:25:00;4.07;;;3.10;;
70814;SDS011;58428;49.478;10.986;2022-07-29T12:27:34;4.60;;;2.88;;
70814;SDS011;58428;49.478;10.986;2022-07-29T12:30:05;4.47;;;2.88;;
70814;SDS011;58428;49.478;10.986;2022-07-29T12:32:33;7.13;;;3.63;;
70814;SDS011;58428;49.478;10.986;2022-07-29T12:35:01;5.28;;;3.55;;
70814;SDS011;58428;49.478;10.986;2022-07-29T12:37:29;5.45;;;3.50;;
70814;SDS011;58428;49.478;10.986;2022-07-29T12:39:54;4.63;;;3.50;;
70814;SDS011;58428;49.478;10.986;2022-07-29T12:42:20;4.88;;;3.25;;
70814;SDS011;58428;49.478;10.986;2022-07-29T12:47:11;5.53;;;3.70;;
70814;SDS011;58428;49.478;10.986;2022-07-29T12:49:37;6.00;;;4.80;;
70814;SDS011;58428;49.478;10.986;2022-07-29T12:52:22;6.50;;;3.50;;
70814;SDS011;58428;49.478;10.986;2022-07-29T12:54:48;4.68;;;3.55;;
70814;SDS011;58428;49.478;10.986;2022-07-29T12:57:13;4.40;;;2.80;;
70814;SDS011;58428;49.478;10.986;2022-07-29T12:59:39;5.45;;;3.00;;
70814;SDS011;58428;49.478;10.986;2022-07-29T13:02:04;4.78;;;3.00;;
70814;SDS011;58428;49.478;10.986;2022-07-29T13:04:30;4.50;;;3.10;;
70814;SDS011;58428;49.478;10.986;2022-07-29T13:07:01;5.50;;;2.90;;
70814;SDS011;58428;49.478;10.986;2022-07-29T13:09:42;5.07;;;3.17;;
70814;SDS011;58428;49.478;10.986;2022-07-29T13:12:13;5.13;;;2.80;;
70814;SDS011;58428;49.478;10.986;2022-07-29T13:14:43;4.55;;;2.83;;
70814;SDS011;58428;49.478;10.986;2022-07-29T13:17:22;6.63;;;3.72;;
70814;SDS011;58428;49.478;10.986;2022-07-29T13:19:48;4.88;;;3.10;;
70814;SDS011;58428;49.478;10.986;2022-07-29T13:22:16;4.53;;;3.00;;
70814;SDS011;58428;49.478;10.986;2022-07-29T13:27:11;6.22;;;3.10;;
70814;SDS011;58428;49.478;10.986;2022-07-29T13:29:36;4.50;;;3.17;;
70814;SDS011;58428;49.478;10.986;2022-07-29T13:32:05;4.90;;;3.10;;
70814;SDS011;58428;49.478;10.986;2022-07-29T13:34:33;5.38;;;2.92;;
70814;SDS011;58428;49.478;10.986;2022-07-29T13:36:58;4.77;;;3.10;;
70814;SDS011;58428;49.478;10.986;2022-07-29T13:39:23;4.63;;;3.00;;
70814;SDS011;58428;49.478;10.986;2022-07-29T13:41:49;4.68;;;3.00;;
70814;SDS011;58428;49.478;10.986;2022-07-29T13:44:17;3.80;;;2.58;;
70814;SDS011;58428;49.478;10.986;2022-07-29T13:46:43;3.55;;;2.50;;
70814;SDS011;58428;49.478;10.986;2022-07-29T13:49:08;4.57;;;2.55;;
70814;SDS011;58428;49.478;10.986;2022-07-29T13:51:36;5.18;;;2.55;;
70814;SDS011;58428;49.478;10.986;2022-07-29T13:54:20;7.85;;;5.70;;
70814;SDS011;58428;49.478;10.986;2022-07-29T13:56:45;3.25;;;2.33;;
70814;SDS011;58428;49.478;10.986;2022-07-29T13:59:10;4.47;;;2.75;;
70814;SDS011;58428;49.478;10.986;2022-07-29T14:01:36;3.42;;;2.55;;
70814;SDS011;58428;49.478;10.986;2022-07-29T14:04:02;4.60;;;2.40;;
70814;SDS011;58428;49.478;10.986;2022-07-29T14:06:27;3.70;;;2.50;;
70814;SDS011;58428;49.478;10.986;2022-07-29T14:08:53;4.53;;;3.10;;
70814;SDS011;58428;49.478;10.986;2022-07-29T14:11:18;4.03;;;2.50;;
70814;SDS011;58428;49.478;10.986;2022-07-29T14:13:44;6.70;;;2.72;;
70814;SDS011;58428;49.478;10.986;2022-07-29T14:16:09;5.03;;;2.53;;
70814;SDS011;58428;49.478;10.986;2022-07-29T14:18:35;7.13;;;3.65;;
70814;SDS011;58428;49.478;10.986;2022-07-29T14:21:00;7.00;;;3.13;;
70814;SDS011;58428;49.478;10.986;2022-07-29T14:23:26;11.75;;;8.18;;
70814;SDS011;58428;49.478;10.986;2022-07-29T14:25:52;3.72;;;2.50;;
70814;SDS011;58428;49.478;10.986;2022-07-29T14:28:17;5.78;;;2.53;;
70814;SDS011;58428;49.478;10.986;2022-07-29T14:30:43;12.82;;;6.80;;
70814;SDS011;58428;49.478;10.986;2022-07-29T14:33:08;10.57;;;6.85;;
70814;SDS011;58428;49.478;10.986;2022-07-29T14:35:34;5.55;;;2.97;;
70814;SDS011;58428;49.478;10.986;2022-07-29T14:37:59;9.43;;;6.18;;
70814;SDS011;58428;49.478;10.986;2022-07-29T14:40:24;15.27;;;11.63;;
70814;SDS011;58428;49.478;10.986;2022-07-29T14:42:50;12.00;;;7.95;;
70814;SDS011;58428;49.478;10.986;2022-07-29T14:45:16;14.77;;;11.43;;
70814;SDS011;58428;49.478;10.986;2022-07-29T14:47:43;8.07;;;5.85;;
70814;SDS011;58428;49.478;10.986;2022-07-29T14:50:22;6.75;;;3.80;;
70814;SDS011;58428;49.478;10.986;2022-07-29T14:52:55;8.20;;;6.13;;
70814;SDS011;58428;49.478;10.986;2022-07-29T14:55:46;8.00;;;4.88;;
70814;SDS011;58428;49.478;10.986;2022-07-29T14:58:11;7.63;;;4.82;;
70814;SDS011;58428;49.478;10.986;2022-07-29T15:00:39;8.00;;;6.18;;
70814;SDS011;58428;49.478;10.986;2022-07-29T15:03:07;5.82;;;3.38;;
70814;SDS011;58428;49.478;10.986;2022-07-29T15:05:35;6.20;;;3.90;;
70814;SDS011;58428;49.478;10.986;2022-07-29T15:08:01;14.27;;;9.90;;
70814;SDS011;58428;49.478;10.986;2022-07-29T15:10:27;5.18;;;3.97;;
70814;SDS011;58428;49.478;10.986;2022-07-29T15:12:53;8.18;;;5.00;;
70814;SDS011;58428;49.478;10.986;2022-07-29T15:15:22;8.45;;;5.30;;
70814;SDS011;58428;49.478;10.986;2022-07-29T15:17:48;8.57;;;6.13;;
70814;SDS011;58428;49.478;10.986;2022-07-29T15:20:13;15.18;;;13.40;;
70814;SDS011;58428;49.478;10.986;2022-07-29T15:22:39;10.30;;;4.93;;
70814;SDS011;58428;49.478;10.986;2022-07-29T15:25:06;14.40;;;11.25;;
70814;SDS011;58428;49.478;10.986;2022-07-29T15:27:32;10.48;;;8.23;;
70814;SDS011;58428;49.478;10.986;2022-07-29T15:29:57;12.90;;;7.38;;
70814;SDS011;58428;49.478;10.986;2022-07-29T15:32:22;13.68;;;9.73;;
70814;SDS011;58428;49.478;10.986;2022-07-29T15:34:48;15.27;;;11.07;;
70814;SDS011;58428;49.478;10.986;2022-07-29T15:37:13;6.88;;;5.00;;
70814;SDS011;58428;49.478;10.986;2022-07-29T15:39:39;13.10;;;9.60;;
70814;SDS011;58428;49.478;10.986;2022-07-29T15:42:04;12.10;;;9.13;;
70814;SDS011;58428;49.478;10.986;2022-07-29T15:44:30;7.85;;;4.75;;
70814;SDS011;58428;49.478;10.986;2022-07-29T15:46:55;9.50;;;6.90;;
70814;SDS011;58428;49.478;10.986;2022-07-29T15:49:36;10.23;;;7.43;;
70814;SDS011;58428;49.478;10.986;2022-07-29T15:52:06;7.10;;;4.57;;
70814;SDS011;58428;49.478;10.986;2022-07-29T15:54:33;7.65;;;4.57;;
70814;SDS011;58428;49.478;10.986;2022-07-29T15:57:00;12.43;;;9.93;;
70814;SDS011;58428;49.478;10.986;2022-07-29T15:59:27;9.32;;;5.40;;
70814;SDS011;58428;49.478;10.986;2022-07-29T16:01:52;7.55;;;5.03;;
70814;SDS011;58428;49.478;10.986;2022-07-29T16:04:21;8.48;;;4.68;;
70814;SDS011;58428;49.478;10.986;2022-07-29T16:06:47;9.20;;;6.45;;
70814;SDS011;58428;49.478;10.986;2022-07-29T16:09:13;10.70;;;7.63;;
70814;SDS011;58428;49.478;10.986;2022-07-29T16:11:42;9.65;;;6.40;;
70814;SDS011;58428;49.478;10.986;2022-07-29T16:14:08;8.88;;;5.63;;